Time;durP1;ratioP1;P1;durP2;ratioP2;P2;SDS_P1;SDS_P2;PMS_P1;PMS_P2;Temp;Humidity;BMP_temperature;BMP_pressure;BME280_temperature;BME280_humidity;BME280_pressure;Samples;Min_cycle;Max_cycle;Signal;HPM_P1;HPM_P2
2022/01/26 00:05:47;;;;;;;30.70;13.95;;;;;;;6.60;57.48;102285.47;5052334;28;20037;-71
2022/01/26 00:06:38;;;;;;;36.63;14.75;;;;;;;7.04;55.95;102281.75;5051576;28;20080;-72
2022/01/26 00:09:06;;;;;;;28.52;14.25;;;;;;;7.05;56.14;102279.94;5052075;28;20045;-71
2022/01/26 00:11:34;;;;;;;33.55;15.20;;;;;;;6.95;56.57;102277.88;5052090;28;20132;-71
2022/01/26 00:14:02;;;;;;;31.10;15.10;;;;;;;6.87;56.58;102277.50;5054955;28;20444;-71
2022/01/26 00:16:43;;;;;;;35.67;15.73;;;;;;;6.83;56.36;102281.31;5052367;28;20051;-71
2022/01/26 00:19:16;;;;;;;34.40;15.38;;;;;;;7.08;55.84;102280.59;5050546;28;20069;-71
2022/01/26 00:21:52;;;;;;;34.83;15.85;;;;;;;6.89;56.34;102283.59;5051763;28;20048;-70
2022/01/26 00:29:21;;;;;;;34.85;15.63;;;;;;;7.22;55.42;102282.38;5052257;28;20127;-71
2022/01/26 00:40:51;;;;;;;37.58;16.67;;;;;;;7.11;55.75;102277.72;5051609;28;20041;-71
2022/01/26 00:43:14;;;;;;;32.42;15.95;;;;;;;7.38;54.71;102268.88;5049339;28;20449;-72
2022/01/26 00:45:42;;;;;;;37.20;15.75;;;;;;;7.02;55.85;102267.66;5050467;28;20068;-72
2022/01/26 00:48:10;;;;;;;32.40;16.42;;;;;;;7.14;55.80;102269.53;5056534;28;20124;-71
2022/01/26 00:50:39;;;;;;;36.58;17.17;;;;;;;6.82;56.05;102268.09;5056210;28;20076;-71
2022/01/26 00:53:06;;;;;;;36.55;16.80;;;;;;;7.14;55.88;102277.53;5068034;28;20472;-72
2022/01/26 00:55:33;;;;;;;34.85;16.98;;;;;;;7.21;55.47;102272.66;5069299;28;20083;-72
2022/01/26 00:57:59;;;;;;;35.60;16.75;;;;;;;6.94;56.02;102277.97;5051424;28;20473;-72
2022/01/26 01:00:27;;;;;;;39.47;17.10;;;;;;;7.07;55.64;102278.88;5049607;28;20124;-72
2022/01/26 01:02:56;;;;;;;37.92;17.88;;;;;;;7.11;55.66;102269.72;5051062;28;20071;-72
2022/01/26 01:05:31;;;;;;;35.88;16.13;;;;;;;7.34;54.92;102260.22;5051181;28;20057;-72
2022/01/26 01:08:04;;;;;;;40.35;17.65;;;;;;;7.13;55.25;102267.81;5051446;28;20487;-72
2022/01/26 01:10:31;;;;;;;34.83;14.85;;;;;;;7.09;55.85;102277.00;5055576;28;20061;-72
2022/01/26 01:12:59;;;;;;;32.40;15.82;;;;;;;7.06;55.70;102282.53;5058014;28;20100;-72
2022/01/26 01:15:27;;;;;;;32.08;15.57;;;;;;;6.94;56.21;102281.50;5044716;28;20060;-72
2022/01/26 01:18:06;;;;;;;35.05;15.73;;;;;;;6.54;56.64;102283.16;5054493;28;20489;-72
2022/01/26 01:28:33;;;;;;;36.20;16.05;;;;;;;6.90;56.84;102282.63;5056608;28;20520;-71
2022/01/26 01:31:10;;;;;;;35.95;16.48;;;;;;;7.16;55.61;102283.66;5054241;28;20128;-72
2022/01/26 01:33:42;;;;;;;32.17;15.88;;;;;;;6.71;56.98;102282.97;5053938;28;20473;-71
2022/01/26 01:36:11;;;;;;;33.80;16.08;;;;;;;7.02;56.38;102274.81;5055170;28;20073;-71
2022/01/26 01:38:43;;;;;;;32.60;14.95;;;;;;;6.70;56.93;102278.59;5055382;28;20079;-72
2022/01/26 01:41:10;;;;;;;33.60;14.98;;;;;;;6.87;56.59;102276.66;5054906;28;20171;-71
2022/01/26 01:43:37;;;;;;;36.00;15.55;;;;;;;6.80;56.76;102275.31;5054835;28;20041;-71
2022/01/26 01:46:04;;;;;;;31.30;14.77;;;;;;;6.95;56.05;102272.53;5049812;28;20081;-72
2022/01/26 01:48:33;;;;;;;35.47;14.27;;;;;;;6.65;56.98;102267.34;5054597;28;20060;-72
2022/01/26 01:51:04;;;;;;;29.38;13.60;;;;;;;6.74;56.92;102265.03;5054652;28;20128;-71
2022/01/26 01:53:36;;;;;;;;;;;;;;;6.17;58.73;102269.41;5055304;28;20068;-71
2022/01/26 01:56:04;;;;;;;30.48;14.05;;;;;;;6.69;57.17;102260.00;5055340;28;19955;-72
2022/01/26 01:58:30;;;;;;;33.05;14.57;;;;;;;6.62;56.72;102261.34;5053969;28;20069;-72
2022/01/26 02:00:57;;;;;;;30.58;14.00;;;;;;;6.72;56.99;102262.47;5057224;28;20473;-72
2022/01/26 02:03:25;;;;;;;26.13;13.02;;;;;;;6.87;56.41;102257.97;5053817;28;20049;-71
2022/01/26 02:09:39;;;;;;;31.10;14.75;;;;;;;6.95;56.40;102253.88;5052720;28;20071;-72
2022/01/26 02:12:18;;;;;;;31.35;14.20;;;;;;;7.07;55.94;102246.00;5052990;28;20065;-71
2022/01/26 02:14:52;;;;;;;34.55;15.15;;;;;;;6.89;56.38;102256.06;5054247;28;20079;-71
2022/01/26 02:49:30;;;;;;;25.20;12.55;;;;;;;6.83;56.41;102249.31;5053918;28;20101;-72
2022/01/26 02:50:33;;;;;;;27.25;11.98;;;;;;;6.90;55.42;102228.44;5053430;28;20041;-72
2022/01/26 02:53:26;;;;;;;29.02;13.15;;;;;;;6.69;56.31;102228.00;5053773;28;20112;-72
2022/01/26 02:55:58;;;;;;;25.55;12.18;;;;;;;6.91;55.63;102219.47;5052106;28;20077;-71
2022/01/26 03:03:50;;;;;;;29.85;14.32;;;;;;;6.98;55.24;102222.59;5052265;28;20045;-72
2022/01/26 03:06:24;;;;;;;30.98;13.85;;;;;;;7.22;54.81;102220.97;5052808;28;20045;-72
2022/01/26 03:08:57;;;;;;;30.77;14.15;;;;;;;6.91;55.07;102219.47;5052120;28;20152;-71
2022/01/26 03:11:28;;;;;;;31.92;14.82;;;;;;;6.76;55.78;102220.47;5071546;28;20155;-71
2022/01/26 03:14:04;;;;;;;28.90;14.77;;;;;;;6.73;55.64;102218.00;5072352;28;20122;-73
2022/01/26 03:16:37;;;;;;;30.50;14.40;;;;;;;7.12;54.97;102225.25;5072474;28;20132;-72
2022/01/26 03:19:24;;;;;;;32.50;15.57;;;;;;;6.95;55.64;102221.00;5073875;28;20094;-72
2022/01/26 03:33:10;;;;;;;32.35;14.20;;;;;;;6.89;55.10;102208.06;5072034;28;20079;-72
2022/01/26 03:35:44;;;;;;;31.42;15.00;;;;;;;6.87;54.89;102212.63;5064579;28;20075;-73
2022/01/26 03:38:22;;;;;;;37.20;16.70;;;;;;;6.47;55.71;102215.19;5073185;28;20143;-72
2022/01/26 03:40:58;;;;;;;34.67;15.30;;;;;;;6.75;54.92;102203.59;5062426;28;20076;-72
2022/01/26 03:43:25;;;;;;;36.15;16.20;;;;;;;6.04;57.11;102212.47;5072496;28;20063;-72
2022/01/26 03:45:51;;;;;;;35.58;16.75;;;;;;;6.59;55.94;102214.38;5071767;28;20123;-72
2022/01/26 03:48:18;;;;;;;42.90;18.33;;;;;;;6.83;55.07;102211.97;5072324;28;20044;-72
2022/01/26 03:50:44;;;;;;;39.90;17.77;;;;;;;6.94;54.71;102211.25;5071219;28;20451;-72
2022/01/26 03:53:11;;;;;;;37.67;16.23;;;;;;;6.67;55.67;102211.25;5061737;28;20127;-72
2022/01/26 03:55:37;;;;;;;41.03;17.52;;;;;;;6.69;55.20;102204.84;5073192;28;20131;-72
2022/01/26 03:58:04;;;;;;;35.65;17.33;;;;;;;6.74;55.09;102207.25;5072896;28;20071;-72
2022/01/26 04:00:31;;;;;;;42.22;18.40;;;;;;;6.74;54.79;102206.34;5072431;28;20095;-71
2022/01/26 04:02:57;;;;;;;41.55;18.77;;;;;;;6.73;55.46;102212.66;5072035;28;20048;-71
2022/01/26 04:05:25;;;;;;;43.85;17.88;;;;;;;7.12;54.36;102214.56;5069781;28;20075;-71
2022/01/26 04:07:57;;;;;;;40.10;18.15;;;;;;;6.81;54.71;102210.38;5071899;28;20080;-71
2022/01/26 04:10:39;;;;;;;42.28;19.55;;;;;;;6.82;55.13;102204.94;5060801;28;20040;-71
2022/01/26 04:13:05;;;;;;;46.30;19.55;;;;;;;6.32;56.34;102200.13;5072210;28;20047;-71
2022/01/26 04:15:35;;;;;;;46.28;19.35;;;;;;;6.61;55.43;102201.81;5070389;28;20048;-72
2022/01/26 04:18:04;;;;;;;46.85;20.50;;;;;;;5.87;57.09;102204.66;5071760;28;20405;-73
2022/01/26 04:20:36;;;;;;;44.38;19.58;;;;;;;6.24;56.06;102201.44;5071314;28;20550;-71
2022/01/26 04:23:15;;;;;;;46.42;19.80;;;;;;;6.64;55.59;102206.97;5071385;28;20136;-73
2022/01/26 04:25:44;;;;;;;44.33;19.10;;;;;;;6.47;55.38;102194.72;5070897;28;20134;-72
2022/01/26 04:28:17;;;;;;;48.40;19.60;;;;;;;6.54;55.95;102187.19;5071678;28;20148;-72
2022/01/26 04:30:43;;;;;;;41.40;18.33;;;;;;;6.24;56.05;102196.13;5071958;28;20132;-72
2022/01/26 04:33:10;;;;;;;48.60;17.92;;;;;;;6.83;54.72;102201.28;5071545;28;20044;-72
2022/01/26 04:35:42;;;;;;;45.15;18.83;;;;;;;6.65;55.02;102197.16;5071872;28;20496;-71
2022/01/26 04:40:41;;;;;;;39.85;16.52;;;;;;;6.43;55.42;102197.69;5036220;28;20061;-72
2022/01/26 04:43:16;;;;;;;35.45;16.02;;;;;;;6.18;55.95;102188.53;5051395;28;20064;-72
2022/01/26 04:45:42;;;;;;;35.67;16.05;;;;;;;6.15;56.27;102188.72;5051227;28;20519;-73
2022/01/26 04:48:09;;;;;;;36.58;15.98;;;;;;;6.21;55.74;102188.31;5050478;28;20473;-73
2022/01/26 04:50:35;;;;;;;36.33;16.05;;;;;;;6.43;55.49;102187.00;5051300;28;20072;-73
2022/01/26 04:53:02;;;;;;;37.03;14.63;;;;;;;6.08;56.10;102190.06;5051816;28;20068;-73
2022/01/26 04:55:28;;;;;;;29.40;12.27;;;;;;;5.89;56.38;102190.31;5050745;28;20068;-71
2022/01/26 04:57:55;;;;;;;31.05;13.93;;;;;;;6.28;55.19;102182.63;5051065;28;20440;-72
2022/01/26 05:00:22;;;;;;;26.92;12.77;;;;;;;6.19;55.66;102189.38;5050640;28;20041;-71
2022/01/26 05:02:48;;;;;;;30.10;13.13;;;;;;;6.44;54.86;102183.38;5051322;28;20052;-72
2022/01/26 05:05:15;;;;;;;29.98;12.38;;;;;;;5.88;56.42;102182.44;5053877;28;20528;-73
2022/01/26 05:07:41;;;;;;;29.17;12.48;;;;;;;6.06;55.78;102183.09;5050773;28;20493;-72
2022/01/26 05:10:08;;;;;;;31.67;13.20;;;;;;;6.34;54.95;102184.91;5051788;28;20053;-72
2022/01/26 05:12:35;;;;;;;30.25;12.07;;;;;;;6.14;56.02;102186.13;5051368;28;20136;-72
2022/01/26 05:15:02;;;;;;;27.63;11.02;;;;;;;6.37;54.93;102182.91;5051812;28;20086;-72
2022/01/26 05:17:29;;;;;;;26.25;11.30;;;;;;;6.21;55.18;102174.97;5051497;28;20072;-72
2022/01/26 05:19:58;;;;;;;24.38;10.45;;;;;;;6.09;55.73;102174.91;5050891;28;20088;-74
2022/01/26 05:22:24;;;;;;;24.40;10.27;;;;;;;5.99;56.10;102171.97;5051618;28;20083;-74
2022/01/26 05:24:52;;;;;;;28.42;11.85;;;;;;;6.00;55.64;102169.19;5051579;28;20056;-73
2022/01/26 05:27:19;;;;;;;29.20;11.88;;;;;;;5.73;56.04;102177.09;5051548;28;20102;-74
2022/01/26 05:29:46;;;;;;;29.80;10.82;;;;;;;6.16;55.06;102162.91;5052096;28;20053;-74
2022/01/26 05:32:12;;;;;;;27.45;11.73;;;;;;;6.30;54.79;102167.41;5058252;28;20086;-74
2022/01/26 05:34:39;;;;;;;31.13;12.45;;;;;;;5.87;55.99;102184.22;5071460;28;20076;-74
2022/01/26 05:37:05;;;;;;;27.63;12.23;;;;;;;5.94;56.33;102168.72;5071622;28;20040;-73
2022/01/26 05:39:33;;;;;;;25.23;10.50;;;;;;;5.84;55.97;102170.25;5071563;28;20068;-74
2022/01/26 05:42:03;;;;;;;28.15;10.38;;;;;;;5.60;56.48;102173.44;5071223;28;20102;-73
2022/01/26 05:44:30;;;;;;;26.13;12.23;;;;;;;5.77;55.88;102167.09;5070247;28;20044;-72
2022/01/26 05:46:56;;;;;;;28.02;11.35;;;;;;;6.09;55.22;102172.25;5070222;28;20052;-73
2022/01/26 05:49:25;;;;;;;26.50;11.57;;;;;;;6.16;55.00;102178.91;5071883;28;20123;-74
2022/01/26 05:51:52;;;;;;;27.60;11.75;;;;;;;5.76;56.20;102171.53;5070743;28;20520;-74
2022/01/26 05:54:19;;;;;;;34.17;14.23;;;;;;;6.04;55.22;102169.84;5067751;28;20087;-74
2022/01/26 05:56:47;;;;;;;35.08;13.55;;;;;;;5.67;55.70;102166.81;5076430;28;20106;-71
2022/01/26 05:59:22;;;;;;;36.83;13.95;;;;;;;5.92;55.47;102166.16;5057879;28;20047;-71
2022/01/26 06:01:50;;;;;;;29.10;12.90;;;;;;;6.02;55.10;102165.59;5074804;28;20119;-71
2022/01/26 06:04:17;;;;;;;35.50;13.73;;;;;;;5.19;56.77;102171.44;5076005;28;20040;-71
2022/01/26 06:06:44;;;;;;;37.92;14.32;;;;;;;5.56;56.08;102163.06;5074875;28;20481;-71
2022/01/26 06:09:11;;;;;;;36.15;14.50;;;;;;;5.96;55.14;102166.81;5074749;28;20044;-71
2022/01/26 06:11:37;;;;;;;34.95;14.20;;;;;;;5.63;56.02;102164.41;5062005;28;20045;-71
2022/01/26 06:14:04;;;;;;;41.80;15.23;;;;;;;5.77;55.12;102159.97;5054163;28;20049;-71
2022/01/26 06:16:30;;;;;;;40.85;16.25;;;;;;;5.59;56.07;102166.38;5053474;28;20141;-71
2022/01/26 06:18:57;;;;;;;40.67;16.20;;;;;;;5.07;56.87;102164.16;5053886;28;20068;-71
2022/01/26 06:21:23;;;;;;;49.28;16.92;;;;;;;5.62;56.42;102158.22;5057089;28;20481;-71
2022/01/26 06:23:50;;;;;;;40.05;16.25;;;;;;;5.72;55.89;102162.03;5054673;28;20163;-71
2022/01/26 06:26:17;;;;;;;42.97;16.55;;;;;;;5.73;55.76;102161.09;5054293;28;20464;-71
2022/01/26 06:28:43;;;;;;;47.90;17.90;;;;;;;5.58;55.80;102163.84;5048985;28;20464;-71
2022/01/26 06:31:14;;;;;;;43.72;17.58;;;;;;;5.92;55.25;102167.97;5053976;28;20525;-71
2022/01/26 06:33:44;;;;;;;52.35;17.90;;;;;;;5.90;55.28;102177.84;5053296;28;20045;-71
2022/01/26 06:36:12;;;;;;;46.47;18.17;;;;;;;5.65;55.54;102165.16;5057929;28;20379;-73
2022/01/26 06:38:41;;;;;;;45.80;16.75;;;;;;;5.90;55.17;102156.53;5053797;28;20053;-74
2022/01/26 06:41:08;;;;;;;45.28;16.70;;;;;;;5.93;54.89;102154.53;5052457;28;20110;-73
2022/01/26 06:43:35;;;;;;;44.53;17.70;;;;;;;6.09;54.38;102142.94;5054264;28;20132;-73
2022/01/26 06:46:03;;;;;;;45.88;17.00;;;;;;;5.86;55.08;102142.56;5056367;28;20515;-73
2022/01/26 06:49:02;;;;;;;41.00;16.42;;;;;;;5.76;54.95;102144.06;5053741;28;20041;-73
2022/01/26 06:51:29;;;;;;;40.92;15.57;;;;;;;6.00;54.60;102141.69;5053540;28;20127;-74
2022/01/26 06:53:55;;;;;;;49.75;16.02;;;;;;;5.87;54.71;102136.28;5035531;28;20481;-74
2022/01/26 06:56:22;;;;;;;49.92;18.75;;;;;;;5.10;56.41;102150.66;5053033;28;20073;-75
2022/01/26 06:58:48;;;;;;;42.75;17.30;;;;;;;5.67;55.77;102145.50;5053967;28;20466;-74
2022/01/26 07:01:15;;;;;;;49.30;17.70;;;;;;;5.67;55.35;102145.50;5060521;28;20071;-74
2022/01/26 07:03:42;;;;;;;46.20;17.15;;;;;;;5.96;54.35;102140.19;5056494;28;20041;-74
2022/01/26 07:06:08;;;;;;;43.58;17.92;;;;;;;5.74;55.14;102141.50;5052521;28;20473;-74
2022/01/26 07:08:35;;;;;;;47.97;18.83;;;;;;;5.19;56.42;102144.81;5053403;28;20458;-74
2022/01/26 07:11:02;;;;;;;44.08;17.45;;;;;;;5.66;55.42;102143.75;5052740;28;20049;-74
2022/01/26 07:13:28;;;;;;;51.40;18.77;;;;;;;5.15;56.25;102143.28;5053423;28;20037;-74
2022/01/26 07:21:28;;;;;;;50.72;19.13;;;;;;;5.71;55.02;102149.69;5053837;28;20426;-74
2022/01/26 07:23:56;;;;;;;49.33;18.55;;;;;;;5.83;54.88;102149.88;5053000;28;20095;-74
2022/01/26 07:26:27;;;;;;;46.33;17.63;;;;;;;5.68;55.25;102147.19;5047658;28;20136;-74
2022/01/26 07:28:55;;;;;;;54.40;20.33;;;;;;;5.66;55.38;102156.22;5053594;28;20045;-74
2022/01/26 07:31:22;;;;;;;51.15;18.80;;;;;;;5.95;54.61;102149.97;5053178;28;20095;-74
2022/01/26 07:33:54;;;;;;;54.33;19.85;;;;;;;6.06;54.10;102143.97;5052700;28;20045;-74
2022/01/26 07:36:25;;;;;;;57.75;19.02;;;;;;;5.82;54.74;102142.84;5054454;28;20437;-74
2022/01/26 07:38:55;;;;;;;49.67;19.55;;;;;;;5.55;55.22;102146.22;5053194;28;20041;-74
2022/01/26 07:41:21;;;;;;;50.42;19.80;;;;;;;5.80;54.84;102150.06;5052984;28;20094;-74
2022/01/26 07:43:48;;;;;;;54.97;20.75;;;;;;;6.04;54.10;102153.88;5038205;28;20072;-74
2022/01/26 07:46:14;;;;;;;58.85;22.33;;;;;;;5.52;55.48;102147.28;5052229;28;20045;-74
2022/01/26 07:48:41;;;;;;;50.45;18.50;;;;;;;5.34;56.14;102140.38;5053079;28;20053;-74
2022/01/26 07:51:08;;;;;;;57.88;19.60;;;;;;;5.65;55.59;102141.22;5052764;28;20045;-74
2022/01/26 07:53:35;;;;;;;49.75;19.00;;;;;;;5.36;55.83;102140.31;5052743;28;20061;-74
2022/01/26 07:56:01;;;;;;;54.83;19.75;;;;;;;5.66;55.21;102146.44;5052253;28;20072;-74
2022/01/26 07:58:28;;;;;;;49.80;18.63;;;;;;;5.65;55.37;102150.03;5052751;28;20079;-74
2022/01/26 08:00:54;;;;;;;48.70;18.85;;;;;;;5.90;54.96;102146.72;5051587;28;20476;-74
2022/01/26 08:03:21;;;;;;;48.33;19.08;;;;;;;6.05;54.34;102150.28;5053191;28;20045;-74
2022/01/26 08:05:48;;;;;;;61.40;20.73;;;;;;;5.48;55.70;102155.53;5052773;28;20045;-74
2022/01/26 08:08:14;;;;;;;50.70;18.83;;;;;;;5.93;54.65;102156.34;5051353;28;20061;-74
2022/01/26 08:10:41;;;;;;;45.55;19.30;;;;;;;5.50;55.41;102156.31;5051617;28;20079;-74
2022/01/26 08:13:07;;;;;;;50.00;19.30;;;;;;;5.94;54.54;102152.72;5033717;28;20128;-74
2022/01/26 08:15:34;;;;;;;45.08;18.35;;;;;;;5.74;55.00;102168.13;5052284;28;20068;-74
2022/01/26 08:18:02;;;;;;;48.28;18.85;;;;;;;5.88;54.29;102159.31;5052574;28;20474;-74
2022/01/26 08:20:29;;;;;;;49.53;19.77;;;;;;;5.70;55.23;102161.28;5060445;28;20048;-74
2022/01/26 08:22:56;;;;;;;51.70;18.80;;;;;;;5.89;54.83;102173.47;5071868;28;20123;-73
2022/01/26 08:25:23;;;;;;;46.05;18.25;;;;;;;6.04;53.99;102158.34;5071202;28;20484;-74
2022/01/26 08:27:57;;;;;;;61.55;20.52;;;;;;;5.91;54.12;102158.28;5073685;28;20044;-74
2022/01/26 08:30:24;;;;;;;55.13;18.83;;;;;;;5.69;55.14;102164.88;5078850;28;20096;-74
2022/01/26 08:32:50;;;;;;;48.00;19.13;;;;;;;5.26;55.55;102167.47;5079241;28;20044;-73
2022/01/26 08:35:17;;;;;;;40.45;17.90;;;;;;;5.35;55.88;102149.22;5077695;28;20052;-74
2022/01/26 08:37:44;;;;;;;43.05;17.73;;;;;;;5.97;54.86;102140.06;5077309;28;20041;-75
2022/01/26 08:40:11;;;;;;;43.40;17.38;;;;;;;5.51;55.66;102150.03;5077189;28;20060;-75
2022/01/26 08:42:37;;;;;;;48.38;19.95;;;;;;;5.29;56.25;102135.34;5076326;28;20048;-73
2022/01/26 08:45:05;;;;;;;43.10;17.45;;;;;;;5.90;54.90;102138.75;5076552;28;20050;-75
2022/01/26 08:47:32;;;;;;;50.58;18.75;;;;;;;6.24;53.65;102140.16;5076743;28;20053;-74
2022/01/26 08:49:59;;;;;;;41.97;17.10;;;;;;;5.66;55.43;102149.09;5072301;28;20055;-74
2022/01/26 08:52:25;;;;;;;46.67;17.60;;;;;;;5.87;54.77;102138.06;5073173;28;20183;-74
2022/01/26 08:54:52;;;;;;;39.40;16.35;;;;;;;5.79;54.81;102127.06;5070877;28;20119;-74
2022/01/26 08:57:18;;;;;;;36.08;16.23;;;;;;;5.40;55.71;102131.19;5071304;28;20095;-74
2022/01/26 08:59:44;;;;;;;34.55;16.00;;;;;;;5.94;54.87;102139.41;5071910;28;20060;-75
2022/01/26 09:02:11;;;;;;;36.67;15.73;;;;;;;5.97;54.48;102137.41;5071034;28;20132;-74
2022/01/26 09:04:38;;;;;;;36.13;16.15;;;;;;;5.98;54.88;102149.78;5070967;28;20433;-74
2022/01/26 09:07:05;;;;;;;38.88;16.20;;;;;;;5.66;55.27;102154.41;5069956;28;20439;-74
2022/01/26 09:09:42;;;;;;;35.42;14.93;;;;;;;5.22;56.57;102163.28;5070881;28;20451;-73
2022/01/26 09:12:17;;;;;;;34.60;15.70;;;;;;;5.41;55.84;102156.84;5070683;28;20148;-73
2022/01/26 09:14:45;;;;;;;36.35;16.08;;;;;;;5.86;54.66;102155.88;5070779;28;20098;-75
2022/01/26 09:17:12;;;;;;;32.10;14.85;;;;;;;5.70;54.99;102149.78;5071614;28;20455;-75
2022/01/26 09:19:42;;;;;;;31.13;14.07;;;;;;;6.20;54.21;102162.63;5053061;28;20135;-75
2022/01/26 09:22:10;;;;;;;34.65;13.82;;;;;;;5.09;56.83;102159.63;5070821;28;20079;-75
2022/01/26 09:24:38;;;;;;;37.58;14.70;;;;;;;5.79;55.04;102164.34;5070257;28;20053;-75
2022/01/26 09:27:07;;;;;;;31.95;13.32;;;;;;;6.02;54.26;102163.78;5071711;28;20090;-75
2022/01/26 09:29:34;;;;;;;33.03;13.75;;;;;;;6.05;54.43;102171.59;5071490;28;20070;-75
2022/01/26 09:32:02;;;;;;;51.80;14.27;;;;;;;5.89;54.50;102166.34;5075519;28;20045;-74
2022/01/26 09:34:30;;;;;;;39.58;15.13;;;;;;;6.06;54.23;102167.97;5074478;28;20048;-75
2022/01/26 09:36:57;;;;;;;32.00;15.00;;;;;;;6.13;53.83;102163.97;5075404;28;20437;-74
2022/01/26 09:39:24;;;;;;;34.60;15.13;;;;;;;5.75;54.55;102155.69;5075908;28;20067;-75
2022/01/26 09:41:51;;;;;;;32.85;14.38;;;;;;;6.28;53.42;102148.84;5075286;28;20041;-75
2022/01/26 09:44:19;;;;;;;29.98;14.30;;;;;;;5.97;54.19;102148.06;5067288;28;20525;-74
2022/01/26 09:46:46;;;;;;;31.88;13.93;;;;;;;6.21;53.88;102151.00;5075708;28;20423;-74
2022/01/26 09:49:16;;;;;;;31.48;14.02;;;;;;;5.73;54.97;102158.44;5074190;28;20132;-74
2022/01/26 09:51:47;;;;;;;34.80;13.10;;;;;;;5.49;55.42;102147.47;5074271;28;20045;-74
2022/01/26 09:54:16;;;;;;;30.55;13.73;;;;;;;6.10;53.85;102149.97;5074817;28;20449;-74
2022/01/26 09:56:48;;;;;;;29.35;13.70;;;;;;;5.56;55.26;102142.63;5073950;28;20075;-74
2022/01/26 09:59:16;;;;;;;27.50;13.10;;;;;;;5.67;55.32;102156.16;5075460;28;20094;-75
2022/01/26 10:01:45;;;;;;;31.27;13.02;;;;;;;5.90;55.00;102159.19;5076000;28;20052;-75
2022/01/26 10:04:27;;;;;;;29.33;14.15;;;;;;;5.68;55.66;102165.84;5075781;28;20401;-74
2022/01/26 10:06:59;;;;;;;26.42;13.73;;;;;;;6.29;54.01;102168.34;5076561;28;20048;-74
2022/01/26 10:17:44;;;;;;;29.70;13.70;;;;;;;6.24;54.39;102172.13;5074709;28;20051;-74
2022/01/26 10:20:17;;;;;;;31.23;14.30;;;;;;;6.30;54.21;102172.75;5073919;28;20040;-74
2022/01/26 10:22:44;;;;;;;31.67;14.63;;;;;;;6.39;53.51;102169.47;5074516;28;20084;-74
2022/01/26 10:25:18;;;;;;;29.38;13.45;;;;;;;6.52;53.57;102164.22;5074345;28;20072;-74
2022/01/26 10:28:05;;;;;;;33.70;13.90;;;;;;;6.33;53.67;102164.56;5072359;28;20040;-75
2022/01/26 10:30:32;;;;;;;31.58;14.82;;;;;;;6.36;53.80;102165.22;5074023;28;20052;-74
2022/01/26 10:32:59;;;;;;;32.83;14.13;;;;;;;6.14;54.07;102165.66;5074524;28;20345;-74
2022/01/26 10:35:25;;;;;;;30.52;13.30;;;;;;;6.11;54.08;102157.84;5074560;28;20468;-74
2022/01/26 10:37:55;;;;;;;27.30;12.02;;;;;;;5.49;55.23;102162.56;5073559;28;20421;-74
2022/01/26 10:40:25;;;;;;;24.23;11.65;;;;;;;5.60;55.31;102160.13;5073227;28;20040;-74
2022/01/26 10:42:56;;;;;;;27.48;13.35;;;;;;;6.34;53.55;102151.13;5073250;28;20126;-74
2022/01/26 10:48:29;;;;;;;33.10;15.63;;;;;;;6.83;52.89;102158.63;5073798;28;20056;-74
2022/01/26 10:51:32;;;;;;;30.85;14.18;;;;;;;6.87;52.78;102152.13;5075287;28;20399;-74
2022/01/26 10:54:10;;;;;;;23.67;11.32;;;;;;;7.09;51.35;102151.56;5074516;28;20048;-75
2022/01/26 10:56:38;;;;;;;22.85;11.20;;;;;;;7.36;50.72;102147.97;5073400;28;20075;-75
2022/01/26 10:59:04;;;;;;;22.27;11.25;;;;;;;6.65;52.20;102147.34;5073831;28;20056;-75
2022/01/26 11:01:31;;;;;;;22.20;10.80;;;;;;;7.07;51.30;102145.47;5075062;28;20083;-75
2022/01/26 11:03:58;;;;;;;22.65;11.32;;;;;;;6.99;51.21;102150.47;5073539;28;20040;-75
2022/01/26 11:06:26;;;;;;;27.48;13.23;;;;;;;6.94;51.21;102149.91;5073465;28;20053;-75
2022/01/26 11:08:57;;;;;;;21.85;11.10;;;;;;;6.64;52.19;102150.13;5072546;28;20449;-75
2022/01/26 11:11:24;;;;;;;;;;;;;;;5.95;54.11;102143.81;5055837;28;20178;-75
2022/01/26 11:13:52;;;;;;;23.25;9.48;;;;;;;5.39;54.96;102148.97;5072749;28;20010;-75
2022/01/26 11:16:47;;;;;;;21.83;9.93;;;;;;;6.23;53.75;102146.44;5067844;28;20048;-75
2022/01/26 11:19:14;;;;;;;14.85;7.88;;;;;;;5.76;54.72;102144.91;5071950;28;20052;-75
2022/01/26 11:21:41;;;;;;;19.98;9.32;;;;;;;5.79;54.71;102154.53;5072934;28;20146;-75
2022/01/26 11:24:18;;;;;;;17.75;8.82;;;;;;;5.56;54.94;102153.28;5066520;28;20127;-75
2022/01/26 11:26:47;;;;;;;19.85;8.65;;;;;;;5.65;54.70;102154.53;5056701;28;20145;-75
2022/01/26 11:29:21;;;;;;;18.73;9.23;;;;;;;6.12;53.85;102158.75;5072817;28;20077;-75
2022/01/26 11:31:58;;;;;;;19.83;9.10;;;;;;;6.38;53.26;102138.44;5072353;28;20534;-78
2022/01/26 11:34:27;;;;;;;23.83;8.98;;;;;;;6.43;53.39;102142.53;5071548;28;20124;-75
2022/01/26 11:36:57;;;;;;;17.10;8.38;;;;;;;6.26;52.73;102134.78;5072261;28;20460;-74
2022/01/26 11:42:32;;;;;;;14.75;7.07;;;;;;;5.77;53.56;102133.34;5071250;28;20083;-74
2022/01/26 11:45:13;;;;;;;15.38;7.78;;;;;;;4.92;55.15;102135.78;5053304;28;20126;-75
2022/01/26 11:47:41;;;;;;;;;;;;;;;5.94;53.31;102131.41;5067393;28;20127;-75
2022/01/26 11:50:12;;;;;;;17.60;8.13;;;;;;;5.25;54.51;102123.19;5071208;28;19931;-74
2022/01/26 11:52:40;;;;;;;18.15;8.57;;;;;;;5.12;54.81;102127.50;5073327;28;20048;-74
2022/01/26 11:55:26;;;;;;;18.33;8.32;;;;;;;5.31;53.61;102116.63;5072233;28;20063;-74
2022/01/26 11:57:55;;;;;;;16.92;7.95;;;;;;;5.87;53.08;102114.09;5066473;28;20057;-74
2022/01/26 12:00:52;;;;;;;19.42;9.80;;;;;;;5.86;52.93;102118.56;5056280;28;20428;-74
2022/01/26 12:03:27;;;;;;;18.38;8.88;;;;;;;6.04;52.75;102113.06;5063018;28;20048;-74
2022/01/26 12:05:57;;;;;;;14.80;7.97;;;;;;;5.27;54.07;102107.13;5072724;28;20068;-74
2022/01/26 12:08:41;;;;;;;18.05;8.90;;;;;;;5.90;53.09;102103.25;5072519;28;20090;-74
2022/01/26 12:11:12;;;;;;;18.88;8.50;;;;;;;5.21;54.20;102104.81;5072532;28;20454;-71
2022/01/26 12:13:40;;;;;;;24.08;9.45;;;;;;;5.76;53.51;102104.97;5053921;28;20053;-71
2022/01/26 12:16:17;;;;;;;21.33;9.50;;;;;;;5.55;53.54;102103.63;5071490;28;20068;-71
2022/01/26 12:18:51;;;;;;;18.15;8.65;;;;;;;5.53;53.42;102101.09;5071014;28;20404;-71
2022/01/26 12:35:47;;;;;;;20.23;10.05;;;;;;;5.33;54.70;102097.91;5063031;28;20079;-71
2022/01/26 12:38:21;;;;;;;25.65;9.27;;;;;;;5.43;54.51;102093.75;5058346;28;20074;-71
2022/01/26 12:41:19;;;;;;;25.10;10.18;;;;;;;5.27;54.92;102078.69;5071272;28;20053;-71
2022/01/26 12:43:48;;;;;;;24.25;9.55;;;;;;;5.06;55.29;102058.72;5070276;28;20135;-71
2022/01/26 12:46:18;;;;;;;23.90;9.45;;;;;;;5.32;54.42;102032.31;5070774;28;20127;-71
2022/01/26 12:48:53;;;;;;;21.25;9.77;;;;;;;5.18;54.76;102046.47;5070825;28;20056;-71
2022/01/26 12:51:21;;;;;;;21.08;9.73;;;;;;;5.26;54.42;102036.22;5071115;28;20448;-71
2022/01/26 12:53:52;;;;;;;26.50;10.52;;;;;;;5.22;54.81;102043.53;5071197;28;20491;-71
2022/01/26 12:56:20;;;;;;;21.15;10.13;;;;;;;5.21;54.74;102041.84;5071943;28;20117;-71
2022/01/26 12:58:46;;;;;;;24.25;9.95;;;;;;;5.56;53.97;102049.47;5052899;28;20071;-71
2022/01/26 13:01:18;;;;;;;28.42;10.73;;;;;;;5.25;54.63;102042.50;5071321;28;20048;-71
2022/01/26 13:03:48;;;;;;;22.65;10.25;;;;;;;5.17;55.10;102052.75;5075036;28;20124;-71
2022/01/26 13:06:23;;;;;;;32.50;12.68;;;;;;;5.37;54.45;102056.84;5071671;28;20049;-71
2022/01/26 13:08:52;;;;;;;31.25;11.65;;;;;;;5.58;53.91;102065.34;5071207;28;20098;-71
2022/01/26 13:11:38;;;;;;;31.38;12.55;;;;;;;5.57;54.40;102061.81;5071427;28;20083;-71
2022/01/26 13:14:22;;;;;;;30.42;12.55;;;;;;;5.03;55.79;102045.59;5071135;28;20044;-71
2022/01/26 13:25:17;;;;;;;34.35;12.90;;;;;;;4.89;55.39;102050.88;5070699;28;20076;-71
2022/01/26 13:28:10;;;;;;;38.75;15.05;;;;;;;5.00;54.73;102059.06;5070531;28;20105;-71
2022/01/26 13:30:59;;;;;;;40.75;14.45;;;;;;;4.71;55.27;102055.47;5071049;28;20500;-71
2022/01/26 13:39:05;;;;;;;41.17;14.50;;;;;;;4.82;54.87;102050.38;5070926;28;20094;-71